sensor_id;sensor_type;location;lat;lon;timestamp;pressure;altitude;pressure_sealevel;temperature;humidity
52651;BME280;38537;47.226;39.702;2023-02-26T00:01:40;100040.44;;;13.35;39.03
52651;BME280;38537;47.226;39.702;2023-02-26T00:04:10;100014.53;;;13.30;38.93
52651;BME280;38537;47.226;39.702;2023-02-26T00:06:39;100028.31;;;13.52;39.21
52651;BME280;38537;47.226;39.702;2023-02-26T00:09:25;100037.13;;;13.42;39.00
52651;BME280;38537;47.226;39.702;2023-02-26T00:11:53;100040.38;;;13.44;39.22
52651;BME280;38537;47.226;39.702;2023-02-26T00:14:21;100048.34;;;13.42;39.16
52651;BME280;38537;47.226;39.702;2023-02-26T00:17:12;100050.59;;;13.49;39.48
52651;BME280;38537;47.226;39.702;2023-02-26T00:19:44;100055.22;;;13.45;39.30
52651;BME280;38537;47.226;39.702;2023-02-26T00:22:12;100062.00;;;13.44;39.69
52651;BME280;38537;47.226;39.702;2023-02-26T00:24:39;100055.28;;;13.36;39.92
52651;BME280;38537;47.226;39.702;2023-02-26T00:27:06;100050.81;;;13.35;39.86
52651;BME280;38537;47.226;39.702;2023-02-26T00:29:34;100068.75;;;13.43;39.88
52651;BME280;38537;47.226;39.702;2023-02-26T00:32:02;100075.56;;;13.33;40.37
52651;BME280;38537;47.226;39.702;2023-02-26T00:34:30;100065.00;;;13.30;40.36
52651;BME280;38537;47.226;39.702;2023-02-26T00:37:07;100067.50;;;13.23;40.60
52651;BME280;38537;47.226;39.702;2023-02-26T00:42:40;100046.22;;;13.22;40.64
52651;BME280;38537;47.226;39.702;2023-02-26T00:45:09;100032.75;;;12.98;40.98
52651;BME280;38537;47.226;39.702;2023-02-26T00:50:30;100084.31;;;13.23;40.74
52651;BME280;38537;47.226;39.702;2023-02-26T00:55:37;100072.94;;;13.11;41.01
52651;BME280;38537;47.226;39.702;2023-02-26T00:58:05;100081.22;;;13.16;41.26
52651;BME280;38537;47.226;39.702;2023-02-26T01:00:32;100078.72;;;13.14;41.49
52651;BME280;38537;47.226;39.702;2023-02-26T01:03:01;100077.91;;;12.79;41.91
52651;BME280;38537;47.226;39.702;2023-02-26T01:05:30;100025.19;;;12.73;41.42
52651;BME280;38537;47.226;39.702;2023-02-26T01:10:34;100067.19;;;12.98;41.64
52651;BME280;38537;47.226;39.702;2023-02-26T01:13:02;100050.88;;;12.92;41.47
52651;BME280;38537;47.226;39.702;2023-02-26T01:15:29;100050.88;;;12.83;41.84
52651;BME280;38537;47.226;39.702;2023-02-26T01:18:30;100055.13;;;13.07;41.66
52651;BME280;38537;47.226;39.702;2023-02-26T01:21:04;100053.47;;;13.05;41.63
52651;BME280;38537;47.226;39.702;2023-02-26T01:23:39;100024.84;;;12.91;40.94
52651;BME280;38537;47.226;39.702;2023-02-26T01:26:21;100062.59;;;13.20;40.80
52651;BME280;38537;47.226;39.702;2023-02-26T01:28:50;100048.91;;;13.18;40.80
52651;BME280;38537;47.226;39.702;2023-02-26T01:34:29;100050.81;;;13.35;40.58
52651;BME280;38537;47.226;39.702;2023-02-26T01:39:46;100062.19;;;13.38;40.45
52651;BME280;38537;47.226;39.702;2023-02-26T01:42:19;100054.44;;;13.35;40.44
52651;BME280;38537;47.226;39.702;2023-02-26T01:45:01;100039.63;;;13.26;40.36
52651;BME280;38537;47.226;39.702;2023-02-26T01:50:26;100041.91;;;13.33;40.23
52651;BME280;38537;47.226;39.702;2023-02-26T01:55:41;100024.44;;;13.27;40.21
52651;BME280;38537;47.226;39.702;2023-02-26T01:58:11;100033.00;;;13.40;39.85
52651;BME280;38537;47.226;39.702;2023-02-26T02:00:38;100038.56;;;13.48;39.96
52651;BME280;38537;47.226;39.702;2023-02-26T02:03:05;100038.56;;;13.48;39.93
52651;BME280;38537;47.226;39.702;2023-02-26T02:05:47;100053.53;;;13.61;39.33
52651;BME280;38537;47.226;39.702;2023-02-26T02:08:18;100049.41;;;13.58;39.70
52651;BME280;38537;47.226;39.702;2023-02-26T02:10:49;100036.06;;;13.55;39.45
52651;BME280;38537;47.226;39.702;2023-02-26T02:22:44;100042.13;;;13.95;39.20
52651;BME280;38537;47.226;39.702;2023-02-26T02:28:26;100045.56;;;14.01;38.98
52651;BME280;38537;47.226;39.702;2023-02-26T02:33:42;100028.84;;;13.84;38.54
52651;BME280;38537;47.226;39.702;2023-02-26T02:36:19;100053.19;;;14.00;38.67
52651;BME280;38537;47.226;39.702;2023-02-26T02:39:00;100033.06;;;13.90;38.68
52651;BME280;38537;47.226;39.702;2023-02-26T02:41:37;100037.34;;;13.96;38.57
52651;BME280;38537;47.226;39.702;2023-02-26T02:44:09;100051.56;;;14.20;38.97
52651;BME280;38537;47.226;39.702;2023-02-26T02:46:39;100048.19;;;14.06;38.57
52651;BME280;38537;47.226;39.702;2023-02-26T02:49:22;100029.75;;;13.96;38.48
52651;BME280;38537;47.226;39.702;2023-02-26T02:51:55;100033.38;;;13.97;38.48
52651;BME280;38537;47.226;39.702;2023-02-26T02:54:42;100046.31;;;14.10;38.42
52651;BME280;38537;47.226;39.702;2023-02-26T02:57:18;100047.97;;;14.11;38.47
52651;BME280;38537;47.226;39.702;2023-02-26T02:59:51;100034.16;;;14.06;38.36
52651;BME280;38537;47.226;39.702;2023-02-26T03:02:27;100039.84;;;14.18;38.00
52651;BME280;38537;47.226;39.702;2023-02-26T03:04:58;100029.28;;;14.15;38.36
52651;BME280;38537;47.226;39.702;2023-02-26T03:07:25;100029.44;;;14.19;38.18
52651;BME280;38537;47.226;39.702;2023-02-26T03:09:54;100018.53;;;14.17;38.11
52651;BME280;38537;47.226;39.702;2023-02-26T03:12:23;100036.28;;;14.30;38.19
52651;BME280;38537;47.226;39.702;2023-02-26T03:14:51;100028.75;;;14.22;38.13
52651;BME280;38537;47.226;39.702;2023-02-26T03:17:27;100055.59;;;14.31;37.93
52651;BME280;38537;47.226;39.702;2023-02-26T03:20:38;100056.09;;;14.33;38.18
52651;BME280;38537;47.226;39.702;2023-02-26T03:23:26;100048.34;;;14.30;37.82
52651;BME280;38537;47.226;39.702;2023-02-26T03:26:28;100034.44;;;14.34;37.94
52651;BME280;38537;47.226;39.702;2023-02-26T03:29:27;100055.91;;;14.38;37.54
52651;BME280;38537;47.226;39.702;2023-02-26T03:31:59;100039.09;;;14.30;37.24
52651;BME280;38537;47.226;39.702;2023-02-26T03:34:50;100063.97;;;14.40;37.64
52651;BME280;38537;47.226;39.702;2023-02-26T03:37:24;100054.66;;;14.27;37.45
52651;BME280;38537;47.226;39.702;2023-02-26T03:39:57;100066.56;;;14.24;37.94
52651;BME280;38537;47.226;39.702;2023-02-26T03:42:35;100053.34;;;14.25;37.91
52651;BME280;38537;47.226;39.702;2023-02-26T03:45:21;100068.97;;;14.34;37.61
52651;BME280;38537;47.226;39.702;2023-02-26T03:47:52;100065.19;;;14.30;37.91
52651;BME280;38537;47.226;39.702;2023-02-26T03:50:30;100050.06;;;14.23;37.87
52651;BME280;38537;47.226;39.702;2023-02-26T03:53:35;100045.09;;;14.28;37.78
52651;BME280;38537;47.226;39.702;2023-02-26T03:59:11;100009.97;;;14.14;37.80
52651;BME280;38537;47.226;39.702;2023-02-26T04:02:06;100059.22;;;14.40;37.59
52651;BME280;38537;47.226;39.702;2023-02-26T04:04:41;100058.06;;;14.42;37.65
52651;BME280;38537;47.226;39.702;2023-02-26T04:07:12;100055.56;;;14.40;37.66
52651;BME280;38537;47.226;39.702;2023-02-26T04:09:41;100059.88;;;14.37;37.86
52651;BME280;38537;47.226;39.702;2023-02-26T04:12:08;100055.59;;;14.31;37.69
52651;BME280;38537;47.226;39.702;2023-02-26T04:14:38;100041.50;;;14.19;37.57
52651;BME280;38537;47.226;39.702;2023-02-26T04:17:06;100074.94;;;14.33;37.40
52651;BME280;38537;47.226;39.702;2023-02-26T04:19:33;100067.53;;;14.28;37.69
52651;BME280;38537;47.226;39.702;2023-02-26T04:22:00;100082.03;;;14.30;37.68
52651;BME280;38537;47.226;39.702;2023-02-26T04:24:27;100093.44;;;14.34;37.48
52651;BME280;38537;47.226;39.702;2023-02-26T04:26:58;100091.22;;;14.19;37.44
52651;BME280;38537;47.226;39.702;2023-02-26T04:29:25;100099.31;;;14.20;37.69
52651;BME280;38537;47.226;39.702;2023-02-26T04:31:54;100089.28;;;14.11;37.48
52651;BME280;38537;47.226;39.702;2023-02-26T04:34:22;100075.56;;;14.09;37.86
52651;BME280;38537;47.226;39.702;2023-02-26T04:36:49;100102.63;;;14.14;37.88
52651;BME280;38537;47.226;39.702;2023-02-26T04:39:18;100085.53;;;14.06;37.61
52651;BME280;38537;47.226;39.702;2023-02-26T04:41:45;100100.16;;;14.12;37.87
52651;BME280;38537;47.226;39.702;2023-02-26T04:44:13;100107.59;;;14.17;37.88
52651;BME280;38537;47.226;39.702;2023-02-26T04:46:41;100103.28;;;14.19;37.68
52651;BME280;38537;47.226;39.702;2023-02-26T04:49:08;100085.16;;;14.08;37.45
52651;BME280;38537;47.226;39.702;2023-02-26T04:51:39;100100.66;;;14.14;37.36
52651;BME280;38537;47.226;39.702;2023-02-26T04:54:08;100114.50;;;14.19;37.54
52651;BME280;38537;47.226;39.702;2023-02-26T04:56:35;100094.53;;;14.12;37.00
52651;BME280;38537;47.226;39.702;2023-02-26T04:59:05;100097.69;;;14.11;37.23
52651;BME280;38537;47.226;39.702;2023-02-26T05:01:33;100113.53;;;14.15;37.48
52651;BME280;38537;47.226;39.702;2023-02-26T05:04:01;100112.53;;;14.20;37.25
52651;BME280;38537;47.226;39.702;2023-02-26T05:06:29;100118.47;;;14.18;37.48
52651;BME280;38537;47.226;39.702;2023-02-26T05:08:56;100114.84;;;14.18;37.08
52651;BME280;38537;47.226;39.702;2023-02-26T05:11:23;100126.53;;;14.28;36.92
52651;BME280;38537;47.226;39.702;2023-02-26T05:13:50;100110.88;;;14.19;37.08
52651;BME280;38537;47.226;39.702;2023-02-26T05:16:19;100111.69;;;14.19;36.94
52651;BME280;38537;47.226;39.702;2023-02-26T05:18:46;100145.00;;;14.29;37.26
52651;BME280;38537;47.226;39.702;2023-02-26T05:21:13;100109.22;;;14.18;36.72
52651;BME280;38537;47.226;39.702;2023-02-26T05:23:41;100123.91;;;14.23;37.06
52651;BME280;38537;47.226;39.702;2023-02-26T05:26:09;100125.34;;;14.29;36.87
52651;BME280;38537;47.226;39.702;2023-02-26T05:28:36;100129.59;;;14.35;36.98
52651;BME280;38537;47.226;39.702;2023-02-26T05:31:04;100121.84;;;14.32;36.94
52651;BME280;38537;47.226;39.702;2023-02-26T05:33:34;100132.06;;;14.46;36.95
52651;BME280;38537;47.226;39.702;2023-02-26T05:36:01;100144.28;;;14.50;36.60
52651;BME280;38537;47.226;39.702;2023-02-26T05:38:28;100138.19;;;14.48;36.64
52651;BME280;38537;47.226;39.702;2023-02-26T05:40:57;100138.38;;;14.43;36.89
52651;BME280;38537;47.226;39.702;2023-02-26T05:43:25;100132.06;;;14.37;36.70
52651;BME280;38537;47.226;39.702;2023-02-26T05:45:53;100142.16;;;14.38;36.74
52651;BME280;38537;47.226;39.702;2023-02-26T05:48:22;100139.34;;;14.38;36.56
52651;BME280;38537;47.226;39.702;2023-02-26T05:50:50;100154.31;;;14.51;36.60
52651;BME280;38537;47.226;39.702;2023-02-26T05:53:18;100143.50;;;14.40;36.65
52651;BME280;38537;47.226;39.702;2023-02-26T05:55:45;100160.66;;;14.48;36.55
52651;BME280;38537;47.226;39.702;2023-02-26T05:58:12;100160.44;;;14.53;36.42
52651;BME280;38537;47.226;39.702;2023-02-26T06:00:40;100140.34;;;14.42;36.88
52651;BME280;38537;47.226;39.702;2023-02-26T06:03:08;100160.91;;;14.55;36.53
52651;BME280;38537;47.226;39.702;2023-02-26T06:05:35;100159.81;;;14.47;36.73
52651;BME280;38537;47.226;39.702;2023-02-26T06:08:03;100152.91;;;14.45;36.58
52651;BME280;38537;47.226;39.702;2023-02-26T06:10:31;100158.66;;;14.48;36.58
52651;BME280;38537;47.226;39.702;2023-02-26T06:12:59;100156.69;;;14.49;36.75
52651;BME280;38537;47.226;39.702;2023-02-26T06:15:26;100170.66;;;14.57;36.81
52651;BME280;38537;47.226;39.702;2023-02-26T06:17:53;100166.19;;;14.56;36.76
52651;BME280;38537;47.226;39.702;2023-02-26T06:20:20;100150.09;;;14.45;36.90
52651;BME280;38537;47.226;39.702;2023-02-26T06:22:49;100164.78;;;14.50;37.09
52651;BME280;38537;47.226;39.702;2023-02-26T06:25:16;100175.47;;;14.57;37.09
52651;BME280;38537;47.226;39.702;2023-02-26T06:27:43;100174.00;;;14.51;36.82
52651;BME280;38537;47.226;39.702;2023-02-26T06:30:11;100166.13;;;14.44;37.07
52651;BME280;38537;47.226;39.702;2023-02-26T06:32:38;100190.31;;;14.57;36.91
52651;BME280;38537;47.226;39.702;2023-02-26T06:35:06;100190.00;;;14.59;37.07
52651;BME280;38537;47.226;39.702;2023-02-26T06:37:34;100176.81;;;14.51;37.04
52651;BME280;38537;47.226;39.702;2023-02-26T06:40:01;100193.94;;;14.66;37.28
52651;BME280;38537;47.226;39.702;2023-02-26T06:42:30;100183.69;;;14.62;37.06
52651;BME280;38537;47.226;39.702;2023-02-26T06:44:57;100207.41;;;14.73;37.22
52651;BME280;38537;47.226;39.702;2023-02-26T06:47:24;100187.81;;;14.64;37.13
52651;BME280;38537;47.226;39.702;2023-02-26T06:49:52;100196.41;;;14.68;37.51
52651;BME280;38537;47.226;39.702;2023-02-26T06:52:19;100197.56;;;14.67;37.31
52651;BME280;38537;47.226;39.702;2023-02-26T06:54:46;100189.81;;;14.64;37.29
52651;BME280;38537;47.226;39.702;2023-02-26T06:57:13;100209.41;;;14.72;37.21
52651;BME280;38537;47.226;39.702;2023-02-26T06:59:40;100190.47;;;14.61;37.55
52651;BME280;38537;47.226;39.702;2023-02-26T07:02:15;100216.22;;;14.71;37.68
52651;BME280;38537;47.226;39.702;2023-02-26T07:04:42;100195.09;;;14.65;37.45
52651;BME280;38537;47.226;39.702;2023-02-26T07:07:10;100202.78;;;14.77;37.35
52651;BME280;38537;47.226;39.702;2023-02-26T07:09:38;100202.63;;;14.73;37.29
52651;BME280;38537;47.226;39.702;2023-02-26T07:12:05;100193.03;;;14.74;37.53
52651;BME280;38537;47.226;39.702;2023-02-26T07:14:33;100184.94;;;14.73;37.58
52651;BME280;38537;47.226;39.702;2023-02-26T07:17:01;100211.97;;;14.86;37.52
52651;BME280;38537;47.226;39.702;2023-02-26T07:19:29;100202.44;;;14.79;37.75
52651;BME280;38537;47.226;39.702;2023-02-26T07:21:56;100216.38;;;14.96;37.68
52651;BME280;38537;47.226;39.702;2023-02-26T07:24:24;100216.25;;;14.92;37.70
52651;BME280;38537;47.226;39.702;2023-02-26T07:26:51;100195.59;;;14.88;37.33
52651;BME280;38537;47.226;39.702;2023-02-26T07:29:18;100221.66;;;14.97;37.50
52651;BME280;38537;47.226;39.702;2023-02-26T07:31:47;100203.84;;;14.93;37.83
52651;BME280;38537;47.226;39.702;2023-02-26T07:34:14;100214.19;;;15.01;37.47
52651;BME280;38537;47.226;39.702;2023-02-26T07:36:42;100224.06;;;15.07;37.62
52651;BME280;38537;47.226;39.702;2023-02-26T07:39:10;100236.63;;;15.10;37.83
52651;BME280;38537;47.226;39.702;2023-02-26T07:41:39;100217.63;;;15.07;37.65
52651;BME280;38537;47.226;39.702;2023-02-26T07:44:13;100215.63;;;15.07;37.77
52651;BME280;38537;47.226;39.702;2023-02-26T07:46:40;100234.69;;;15.23;37.75
52651;BME280;38537;47.226;39.702;2023-02-26T07:49:08;100225.59;;;15.26;37.82
52651;BME280;38537;47.226;39.702;2023-02-26T07:51:35;100236.63;;;15.31;37.68
52651;BME280;38537;47.226;39.702;2023-02-26T07:54:03;100222.28;;;15.24;37.83
52651;BME280;38537;47.226;39.702;2023-02-26T07:56:31;100243.91;;;15.32;37.89
52651;BME280;38537;47.226;39.702;2023-02-26T07:58:58;100243.81;;;15.20;38.32
52651;BME280;38537;47.226;39.702;2023-02-26T08:01:25;100245.97;;;15.23;38.13
52651;BME280;38537;47.226;39.702;2023-02-26T08:03:52;100239.38;;;15.19;38.33
52651;BME280;38537;47.226;39.702;2023-02-26T08:06:20;100228.13;;;15.19;38.29
52651;BME280;38537;47.226;39.702;2023-02-26T08:08:47;100236.63;;;15.31;37.91
52651;BME280;38537;47.226;39.702;2023-02-26T08:11:14;100246.88;;;15.35;38.47
52651;BME280;38537;47.226;39.702;2023-02-26T08:13:41;100225.72;;;15.29;38.49
52651;BME280;38537;47.226;39.702;2023-02-26T08:16:09;100233.97;;;15.34;38.37
52651;BME280;38537;47.226;39.702;2023-02-26T08:18:36;100222.38;;;15.36;38.87
52651;BME280;38537;47.226;39.702;2023-02-26T08:21:04;100242.19;;;15.39;38.61
52651;BME280;38537;47.226;39.702;2023-02-26T08:23:31;100246.56;;;15.49;38.52
52651;BME280;38537;47.226;39.702;2023-02-26T08:26:06;100228.38;;;15.47;38.50
52651;BME280;38537;47.226;39.702;2023-02-26T08:28:35;100233.19;;;15.46;38.45
52651;BME280;38537;47.226;39.702;2023-02-26T08:31:03;100244.38;;;15.55;38.48
52651;BME280;38537;47.226;39.702;2023-02-26T08:33:32;100239.44;;;15.52;38.62
52651;BME280;38537;47.226;39.702;2023-02-26T08:35:59;100244.81;;;15.65;38.63
52651;BME280;38537;47.226;39.702;2023-02-26T08:38:28;100253.72;;;15.67;38.49
52651;BME280;38537;47.226;39.702;2023-02-26T08:40:56;100243.63;;;15.66;38.67
52651;BME280;38537;47.226;39.702;2023-02-26T08:43:25;100253.03;;;15.70;38.47
52651;BME280;38537;47.226;39.702;2023-02-26T08:45:56;100250.72;;;15.72;38.65
52651;BME280;38537;47.226;39.702;2023-02-26T08:48:23;100258.94;;;15.77;38.58
52651;BME280;38537;47.226;39.702;2023-02-26T08:50:51;100245.78;;;15.82;38.32
52651;BME280;38537;47.226;39.702;2023-02-26T08:53:18;100264.06;;;15.96;38.39
52651;BME280;38537;47.226;39.702;2023-02-26T08:55:49;100252.59;;;15.81;38.49
52651;BME280;38537;47.226;39.702;2023-02-26T08:58:18;100261.94;;;15.93;38.50
52651;BME280;38537;47.226;39.702;2023-02-26T09:00:46;100257.81;;;15.91;38.51
52651;BME280;38537;47.226;39.702;2023-02-26T09:03:14;100240.78;;;15.87;38.34
52651;BME280;38537;47.226;39.702;2023-02-26T09:05:41;100257.94;;;15.94;38.48
52651;BME280;38537;47.226;39.702;2023-02-26T09:08:08;100267.22;;;15.95;38.52
52651;BME280;38537;47.226;39.702;2023-02-26T09:10:37;100267.38;;;16.10;38.44
52651;BME280;38537;47.226;39.702;2023-02-26T09:13:07;100270.19;;;16.10;38.26
52651;BME280;38537;47.226;39.702;2023-02-26T09:15:34;100244.47;;;16.00;38.53
52651;BME280;38537;47.226;39.702;2023-02-26T09:18:02;100268.47;;;16.18;38.36
52651;BME280;38537;47.226;39.702;2023-02-26T09:20:29;100245.66;;;16.11;38.47
52651;BME280;38537;47.226;39.702;2023-02-26T09:22:57;100248.00;;;16.09;37.97
52651;BME280;38537;47.226;39.702;2023-02-26T09:25:24;100275.88;;;16.23;38.16
52651;BME280;38537;47.226;39.702;2023-02-26T09:27:51;100278.00;;;16.38;37.99
52651;BME280;38537;47.226;39.702;2023-02-26T09:30:18;100268.72;;;16.37;38.00
52651;BME280;38537;47.226;39.702;2023-02-26T09:32:45;100264.63;;;16.35;37.88
52651;BME280;38537;47.226;39.702;2023-02-26T09:35:12;100265.19;;;16.28;37.98
52651;BME280;38537;47.226;39.702;2023-02-26T09:37:40;100281.78;;;16.42;37.85
52651;BME280;38537;47.226;39.702;2023-02-26T09:40:16;100273.50;;;16.25;38.00
52651;BME280;38537;47.226;39.702;2023-02-26T09:45:36;100266.38;;;16.39;37.96
52651;BME280;38537;47.226;39.702;2023-02-26T09:48:06;100270.59;;;16.45;37.86
52651;BME280;38537;47.226;39.702;2023-02-26T09:50:55;100265.22;;;16.53;37.96
52651;BME280;38537;47.226;39.702;2023-02-26T09:53:32;100269.22;;;16.52;38.09
52651;BME280;38537;47.226;39.702;2023-02-26T09:56:09;100264.06;;;16.54;38.17
52651;BME280;38537;47.226;39.702;2023-02-26T09:58:38;100296.59;;;16.51;38.19
52651;BME280;38537;47.226;39.702;2023-02-26T10:01:18;100282.25;;;16.44;38.28
52651;BME280;38537;47.226;39.702;2023-02-26T10:10:02;100278.88;;;16.63;38.39
52651;BME280;38537;47.226;39.702;2023-02-26T10:12:35;100272.50;;;16.54;38.23
52651;BME280;38537;47.226;39.702;2023-02-26T10:15:19;100293.00;;;16.75;38.20
52651;BME280;38537;47.226;39.702;2023-02-26T10:31:51;100290.19;;;16.75;38.61
52651;BME280;38537;47.226;39.702;2023-02-26T10:34:56;100290.75;;;16.68;38.87
52651;BME280;38537;47.226;39.702;2023-02-26T10:37:27;100314.28;;;16.85;38.85
52651;BME280;38537;47.226;39.702;2023-02-26T10:40:09;100307.00;;;16.84;39.15
52651;BME280;38537;47.226;39.702;2023-02-26T10:45:41;100327.44;;;16.93;38.94
52651;BME280;38537;47.226;39.702;2023-02-26T10:50:53;100313.22;;;16.89;39.12
52651;BME280;38537;47.226;39.702;2023-02-26T10:53:23;100329.91;;;16.94;39.07
52651;BME280;38537;47.226;39.702;2023-02-26T10:56:06;100335.91;;;17.05;39.25
52651;BME280;38537;47.226;39.702;2023-02-26T10:58:36;100330.28;;;17.05;39.08
52651;BME280;38537;47.226;39.702;2023-02-26T11:01:15;100298.66;;;16.87;39.18
52651;BME280;38537;47.226;39.702;2023-02-26T11:03:48;100323.56;;;16.97;39.42
52651;BME280;38537;47.226;39.702;2023-02-26T11:06:22;100334.13;;;17.25;38.98
52651;BME280;38537;47.226;39.702;2023-02-26T11:08:52;100306.63;;;16.97;39.20
52651;BME280;38537;47.226;39.702;2023-02-26T11:11:44;100336.72;;;17.18;39.37
52651;BME280;38537;47.226;39.702;2023-02-26T11:14:13;100333.66;;;17.10;39.33
52651;BME280;38537;47.226;39.702;2023-02-26T11:16:51;100334.88;;;17.09;39.35
52651;BME280;38537;47.226;39.702;2023-02-26T11:19:25;100345.66;;;17.20;39.34
52651;BME280;38537;47.226;39.702;2023-02-26T11:21:54;100354.16;;;17.07;39.54
52651;BME280;38537;47.226;39.702;2023-02-26T11:24:36;100326.63;;;17.04;39.63
52651;BME280;38537;47.226;39.702;2023-02-26T11:27:15;100365.16;;;17.12;39.64
52651;BME280;38537;47.226;39.702;2023-02-26T11:29:54;100362.13;;;17.18;39.60
52651;BME280;38537;47.226;39.702;2023-02-26T11:32:29;100358.81;;;17.16;39.68
52651;BME280;38537;47.226;39.702;2023-02-26T11:34:57;100373.91;;;17.32;39.41
52651;BME280;38537;47.226;39.702;2023-02-26T11:37:49;100375.78;;;17.28;39.68
52651;BME280;38537;47.226;39.702;2023-02-26T11:42:58;100355.53;;;17.13;39.69
52651;BME280;38537;47.226;39.702;2023-02-26T11:45:27;100357.91;;;17.24;39.63
52651;BME280;38537;47.226;39.702;2023-02-26T11:47:59;100365.88;;;17.22;39.90
52651;BME280;38537;47.226;39.702;2023-02-26T11:50:29;100365.28;;;17.16;39.87
52651;BME280;38537;47.226;39.702;2023-02-26T11:53:06;100377.66;;;17.24;39.98
52651;BME280;38537;47.226;39.702;2023-02-26T11:55:37;100374.81;;;17.24;40.22
52651;BME280;38537;47.226;39.702;2023-02-26T11:58:18;100370.94;;;17.28;40.07
52651;BME280;38537;47.226;39.702;2023-02-26T12:00:46;100378.81;;;17.23;40.13
52651;BME280;38537;47.226;39.702;2023-02-26T12:03:19;100378.56;;;17.16;40.11
52651;BME280;38537;47.226;39.702;2023-02-26T12:05:49;100382.34;;;17.20;40.42
52651;BME280;38537;47.226;39.702;2023-02-26T12:08:25;100376.81;;;17.23;40.11
52651;BME280;38537;47.226;39.702;2023-02-26T12:16:52;100391.50;;;17.41;40.16
52651;BME280;38537;47.226;39.702;2023-02-26T12:34:01;100398.91;;;17.58;40.00
52651;BME280;38537;47.226;39.702;2023-02-26T12:45:23;100414.19;;;17.57;40.03
52651;BME280;38537;47.226;39.702;2023-02-26T13:05:31;100433.03;;;17.89;39.95
52651;BME280;38537;47.226;39.702;2023-02-26T13:08:41;100433.16;;;17.93;40.05
52651;BME280;38537;47.226;39.702;2023-02-26T13:11:30;100434.91;;;17.85;40.16
52651;BME280;38537;47.226;39.702;2023-02-26T13:22:23;100418.22;;;17.80;40.37
52651;BME280;38537;47.226;39.702;2023-02-26T13:27:42;100439.31;;;17.70;40.44
52651;BME280;38537;47.226;39.702;2023-02-26T13:30:19;100444.47;;;17.68;40.66
52651;BME280;38537;47.226;39.702;2023-02-26T13:32:52;100444.22;;;17.61;40.62
52651;BME280;38537;47.226;39.702;2023-02-26T13:35:27;100434.91;;;17.61;40.66
52651;BME280;38537;47.226;39.702;2023-02-26T13:37:57;100447.06;;;17.73;40.57
52651;BME280;38537;47.226;39.702;2023-02-26T13:43:54;100444.94;;;17.83;40.51
52651;BME280;38537;47.226;39.702;2023-02-26T13:46:41;100441.16;;;17.78;40.64
52651;BME280;38537;47.226;39.702;2023-02-26T13:52:00;100417.38;;;17.55;40.62
52651;BME280;38537;47.226;39.702;2023-02-26T13:54:33;100425.16;;;17.58;40.68
52651;BME280;38537;47.226;39.702;2023-02-26T13:57:23;100435.53;;;17.66;40.85
52651;BME280;38537;47.226;39.702;2023-02-26T14:00:21;100433.63;;;17.58;40.93
52651;BME280;38537;47.226;39.702;2023-02-26T14:03:28;100444.47;;;17.68;40.53
52651;BME280;38537;47.226;39.702;2023-02-26T14:06:25;100446.13;;;17.69;40.86
52651;BME280;38537;47.226;39.702;2023-02-26T14:08:56;100448.47;;;17.67;40.67
52651;BME280;38537;47.226;39.702;2023-02-26T14:14:11;100465.97;;;17.61;41.13
52651;BME280;38537;47.226;39.702;2023-02-26T14:16:41;100471.84;;;17.56;41.19
52651;BME280;38537;47.226;39.702;2023-02-26T14:22:21;100484.22;;;17.51;41.37
52651;BME280;38537;47.226;39.702;2023-02-26T14:24:57;100479.50;;;17.55;41.08
52651;BME280;38537;47.226;39.702;2023-02-26T14:27:38;100480.22;;;17.52;41.30
52651;BME280;38537;47.226;39.702;2023-02-26T14:35:27;100479.28;;;17.60;40.81
52651;BME280;38537;47.226;39.702;2023-02-26T14:40:45;100481.97;;;17.57;41.05
52651;BME280;38537;47.226;39.702;2023-02-26T14:43:35;100485.19;;;17.67;41.03
52651;BME280;38537;47.226;39.702;2023-02-26T14:46:06;100479.50;;;17.55;40.75
52651;BME280;38537;47.226;39.702;2023-02-26T14:48:35;100498.25;;;17.72;40.86
52651;BME280;38537;47.226;39.702;2023-02-26T15:15:37;100510.59;;;17.79;40.19
52651;BME280;38537;47.226;39.702;2023-02-26T15:18:28;100505.22;;;17.74;40.28
52651;BME280;38537;47.226;39.702;2023-02-26T15:23:42;100490.38;;;17.65;40.37
52651;BME280;38537;47.226;39.702;2023-02-26T15:28:46;100507.63;;;17.64;40.37
52651;BME280;38537;47.226;39.702;2023-02-26T15:31:15;100489.97;;;17.55;40.21
52651;BME280;38537;47.226;39.702;2023-02-26T15:33:47;100525.22;;;17.69;40.21
52651;BME280;38537;47.226;39.702;2023-02-26T15:36:19;100525.75;;;17.63;40.42
52651;BME280;38537;47.226;39.702;2023-02-26T15:38:54;100518.47;;;17.62;40.38
52651;BME280;38537;47.226;39.702;2023-02-26T15:41:26;100536.50;;;17.69;40.36
52651;BME280;38537;47.226;39.702;2023-02-26T15:43:59;100539.56;;;17.64;40.38
52651;BME280;38537;47.226;39.702;2023-02-26T15:46:32;100533.06;;;17.64;40.45
52651;BME280;38537;47.226;39.702;2023-02-26T15:49:11;100554.41;;;17.73;40.35
52651;BME280;38537;47.226;39.702;2023-02-26T15:51:42;100552.75;;;17.72;40.60
52651;BME280;38537;47.226;39.702;2023-02-26T15:54:16;100532.94;;;17.60;40.42
52651;BME280;38537;47.226;39.702;2023-02-26T15:56:46;100558.75;;;17.71;40.40
52651;BME280;38537;47.226;39.702;2023-02-26T15:59:21;100558.16;;;17.65;40.59
52651;BME280;38537;47.226;39.702;2023-02-26T16:01:49;100564.63;;;17.66;40.45
52651;BME280;38537;47.226;39.702;2023-02-26T16:04:20;100574.41;;;17.68;40.45
52651;BME280;38537;47.226;39.702;2023-02-26T16:06:52;100565.84;;;17.56;39.95